Time;durP1;ratioP1;P1;durP2;ratioP2;P2;SDS_P1;SDS_P2;PMS_P1;PMS_P2;Temp;Humidity;BMP_temperature;BMP_pressure;BME280_temperature;BME280_humidity;BME280_pressure;Samples;Min_cycle;Max_cycle;Signal;HPM_P1;HPM_P2
2021/12/10 00:02:04;;;;;;;2.22;1.92;;;22.60;43.70;;;;;;5061987;28;43948;-63
2021/12/10 00:04:36;;;;;;;2.72;2.20;;;22.50;43.60;;;;;;5072814;28;44992;-63
2021/12/10 00:07:14;;;;;;;2.10;1.90;;;22.50;43.60;;;;;;5068382;28;43479;-62
2021/12/10 00:09:46;;;;;;;3.58;2.35;;;22.50;43.60;;;;;;5055121;28;43520;-62
2021/12/10 00:12:17;;;;;;;2.22;2.03;;;22.50;43.70;;;;;;5069290;28;43386;-64
2021/12/10 00:14:46;;;;;;;2.30;2.10;;;22.50;43.70;;;;;;5047312;28;43639;-64
2021/12/10 00:17:15;;;;;;;1.85;1.75;;;22.50;43.70;;;;;;5054427;28;43832;-64
2021/12/10 00:19:50;;;;;;;2.40;2.00;;;22.50;43.70;;;;;;5061502;28;43418;-64
2021/12/10 00:22:29;;;;;;;2.28;2.05;;;22.50;43.70;;;;;;5071803;28;43464;-64
2021/12/10 00:24:56;;;;;;;2.20;1.98;;;22.40;43.60;;;;;;5065643;28;43570;-65
2021/12/10 00:27:29;;;;;;;2.20;2.00;;;22.40;43.70;;;;;;5056657;28;43505;-64
2021/12/10 00:30:06;;;;;;;2.60;2.10;;;22.40;43.70;;;;;;5072323;28;43573;-64
2021/12/10 00:32:40;;;;;;;3.08;2.30;;;22.40;43.70;;;;;;5047690;28;43594;-64
2021/12/10 00:35:23;;;;;;;2.53;2.10;;;22.40;43.70;;;;;;5060265;28;43581;-63
2021/12/10 00:37:51;;;;;;;2.38;1.85;;;22.30;44.30;;;;;;5051837;28;44134;-62
2021/12/10 00:40:21;;;;;;;2.17;1.98;;;22.40;43.70;;;;;;5075845;28;43508;-63
2021/12/10 00:42:48;;;;;;;2.67;2.00;;;22.40;43.70;;;;;;5074042;28;43430;-63
2021/12/10 00:45:17;;;;;;;2.42;1.90;;;22.40;43.70;;;;;;5059378;28;43821;-62
2021/12/10 00:47:46;;;;;;;2.55;1.90;;;22.30;43.70;;;;;;5055516;28;43595;-63
2021/12/10 00:50:22;;;;;;;3.08;2.20;;;22.30;43.70;;;;;;5069807;28;43419;-62
2021/12/10 00:52:51;;;;;;;2.33;2.00;;;22.30;43.70;;;;;;5061093;28;43413;-63
2021/12/10 00:55:19;;;;;;;2.70;2.30;;;22.30;43.70;;;;;;5044534;28;43927;-64
2021/12/10 00:57:47;;;;;;;3.45;1.88;;;22.30;43.70;;;;;;5071998;28;43989;-64
2021/12/10 01:00:19;;;;;;;2.42;2.00;;;22.30;43.70;;;;;;5071446;28;43519;-63
2021/12/10 01:02:47;;;;;;;2.63;2.40;;;22.30;43.70;;;;;;5048274;28;43503;-64
2021/12/10 01:05:16;;;;;;;2.20;2.00;;;22.20;43.60;;;;;;5033983;28;44062;-63
2021/12/10 01:07:43;;;;;;;2.63;2.13;;;22.20;43.70;;;;;;5078482;28;43786;-62
2021/12/10 01:10:27;;;;;;;2.50;1.98;;;22.20;43.70;;;;;;5072290;28;44029;-62
2021/12/10 01:12:57;;;;;;;2.90;2.15;;;22.20;43.70;;;;;;5056844;28;43537;-63
2021/12/10 01:15:47;;;;;;;2.88;1.95;;;22.20;43.70;;;;;;5050722;28;44665;-63
2021/12/10 01:24:13;;;;;;;2.20;2.00;;;22.20;43.70;;;;;;5034314;28;44058;-62
2021/12/10 01:29:17;;;;;;;2.55;1.70;;;22.20;43.80;;;;;;5050446;28;43481;-63
2021/12/10 01:31:45;;;;;;;2.30;1.90;;;22.20;43.80;;;;;;5058611;28;43425;-64
2021/12/10 01:34:14;;;;;;;3.13;2.10;;;22.10;43.70;;;;;;5060383;28;43508;-64
2021/12/10 01:36:42;;;;;;;2.40;1.90;;;22.10;43.80;;;;;;5077129;28;43806;-64
2021/12/10 01:39:14;;;;;;;2.13;1.90;;;22.10;43.80;;;;;;5063742;28;43407;-63
2021/12/10 01:41:53;;;;;;;2.28;2.08;;;22.10;43.80;;;;;;5029948;28;43543;-64
2021/12/10 01:44:29;;;;;;;2.05;1.73;;;22.10;43.80;;;;;;5063987;28;43403;-64
2021/12/10 01:47:05;;;;;;;2.30;1.83;;;22.10;43.80;;;;;;5047870;28;44087;-64
2021/12/10 01:49:33;;;;;;;2.33;2.08;;;22.00;43.80;;;;;;5064944;28;43438;-62
2021/12/10 01:52:00;;;;;;;2.15;1.95;;;22.00;43.80;;;;;;5058919;28;43446;-63
2021/12/10 01:54:37;;;;;;;1.95;1.80;;;22.00;43.80;;;;;;5068168;28;43438;-62
2021/12/10 01:57:06;;;;;;;1.80;1.70;;;22.00;43.80;;;;;;5064317;28;44063;-64
2021/12/10 01:59:35;;;;;;;2.72;1.92;;;22.00;43.80;;;;;;5052652;28;43722;-64
2021/12/10 02:02:14;;;;;;;1.90;1.65;;;22.00;43.90;;;;;;5065078;28;43465;-63
2021/12/10 02:04:44;;;;;;;2.08;1.88;;;22.00;43.90;;;;;;5071260;28;43560;-63
2021/12/10 02:07:14;;;;;;;1.83;1.70;;;22.00;43.90;;;;;;5067086;28;43741;-63
2021/12/10 02:09:42;;;;;;;2.20;1.90;;;22.00;43.90;;;;;;5054694;28;43566;-63
2021/12/10 02:12:10;;;;;;;2.75;1.90;;;21.90;43.90;;;;;;5070982;28;43471;-63
2021/12/10 02:14:38;;;;;;;2.90;2.00;;;21.90;43.80;;;;;;5071030;28;43450;-63
2021/12/10 02:17:06;;;;;;;2.63;1.98;;;21.90;43.90;;;;;;5065679;28;43789;-65
2021/12/10 02:19:35;;;;;;;2.10;1.90;;;21.90;43.90;;;;;;5060583;28;43463;-62
2021/12/10 02:22:04;;;;;;;2.10;1.80;;;21.90;43.90;;;;;;5050618;28;43494;-63
2021/12/10 02:24:31;;;;;;;2.28;1.88;;;21.90;43.90;;;;;;5070024;28;43486;-63
2021/12/10 02:27:03;;;;;;;2.30;1.83;;;21.90;43.90;;;;;;5064136;28;44720;-63
2021/12/10 02:29:34;;;;;;;2.78;1.90;;;21.90;43.90;;;;;;5057789;28;43696;-62
2021/12/10 02:32:03;;;;;;;1.73;1.63;;;21.90;43.80;;;;;;5065758;28;43446;-62
2021/12/10 02:34:31;;;;;;;2.10;1.90;;;22.00;43.80;;;;;;5045781;28;43447;-63
2021/12/10 02:36:58;;;;;;;2.15;1.90;;;22.00;43.70;;;;;;5057464;28;43789;-64
2021/12/10 02:39:27;;;;;;;1.52;1.42;;;22.00;43.70;;;;;;5063951;28;43913;-63
2021/12/10 02:41:55;;;;;;;1.90;1.70;;;22.00;43.70;;;;;;5073490;28;43432;-64
2021/12/10 02:44:27;;;;;;;2.17;1.80;;;21.90;44.30;;;;;;5061129;28;43460;-63
2021/12/10 02:46:56;;;;;;;2.63;1.83;;;21.90;43.70;;;;;;5061977;28;43820;-63
2021/12/10 02:49:27;;;;;;;2.25;1.73;;;21.90;43.70;;;;;;5075366;28;43508;-64
2021/12/10 02:51:55;;;;;;;1.70;1.60;;;21.90;43.70;;;;;;5044733;28;43419;-63
2021/12/10 02:54:33;;;;;;;2.53;1.65;;;21.90;43.80;;;;;;5069934;28;43486;-61
2021/12/10 02:57:08;;;;;;;1.92;1.70;;;21.90;43.70;;;;;;5042172;28;44357;-64
2021/12/10 02:59:38;;;;;;;2.05;1.80;;;21.90;43.80;;;;;;5071984;28;43439;-62
2021/12/10 03:02:16;;;;;;;1.63;1.52;;;21.90;43.80;;;;;;5069312;28;43486;-63
2021/12/10 03:04:44;;;;;;;1.98;1.60;;;21.80;43.70;;;;;;5054828;28;43545;-63
2021/12/10 03:07:16;;;;;;;1.73;1.60;;;21.80;43.80;;;;;;5048911;28;44189;-64
2021/12/10 03:09:49;;;;;;;1.70;1.60;;;21.80;43.80;;;;;;5073973;28;43708;-64
2021/12/10 03:12:21;;;;;;;1.90;1.70;;;21.80;43.80;;;;;;5044569;28;43925;-63
2021/12/10 03:14:53;;;;;;;2.58;2.10;;;21.80;43.70;;;;;;5056753;28;43456;-62
2021/12/10 03:17:29;;;;;;;2.05;1.80;;;21.80;43.80;;;;;;5073059;28;44714;-64
2021/12/10 03:19:58;;;;;;;3.35;2.00;;;21.80;43.80;;;;;;5068114;28;43420;-64
2021/12/10 03:22:26;;;;;;;2.33;1.77;;;21.80;43.80;;;;;;5058695;28;43408;-63
2021/12/10 03:24:54;;;;;;;1.80;1.70;;;21.80;43.90;;;;;;5070901;28;43412;-62
2021/12/10 03:27:22;;;;;;;2.92;1.92;;;21.80;43.80;;;;;;5073092;28;43528;-64
2021/12/10 03:29:51;;;;;;;2.58;1.52;;;21.70;43.80;;;;;;5067988;28;43939;-63
2021/12/10 03:32:25;;;;;;;1.80;1.70;;;21.70;43.80;;;;;;5047843;28;43492;-64
2021/12/10 03:34:53;;;;;;;2.45;1.92;;;21.70;43.80;;;;;;5073339;28;43538;-62
2021/12/10 03:37:21;;;;;;;2.83;1.85;;;21.70;43.80;;;;;;5035318;28;45046;-64
2021/12/10 03:39:51;;;;;;;1.70;1.60;;;21.70;43.80;;;;;;5070857;28;44108;-63
2021/12/10 03:42:21;;;;;;;2.17;1.65;;;21.70;43.80;;;;;;5028370;28;43521;-62
2021/12/10 03:44:49;;;;;;;2.92;1.80;;;21.70;43.80;;;;;;5053683;28;43534;-63
2021/12/10 03:47:16;;;;;;;2.00;1.80;;;21.70;43.90;;;;;;5075271;28;43805;-64
2021/12/10 03:49:44;;;;;;;1.70;1.60;;;21.70;43.90;;;;;;5052208;28;43979;-62
2021/12/10 03:52:12;;;;;;;1.73;1.60;;;21.60;43.90;;;;;;5067431;28;44018;-63
2021/12/10 03:54:41;;;;;;;2.85;1.88;;;21.60;43.90;;;;;;5075727;28;43518;-64
2021/12/10 03:57:10;;;;;;;2.17;1.83;;;21.60;43.90;;;;;;5073576;28;43873;-64
2021/12/10 03:59:38;;;;;;;2.30;1.70;;;21.60;43.90;;;;;;5064956;28;44082;-64
2021/12/10 04:02:09;;;;;;;1.50;1.38;;;21.60;43.90;;;;;;5071346;28;43536;-64
2021/12/10 04:04:46;;;;;;;1.73;1.63;;;21.60;43.90;;;;;;5073786;28;43446;-61
2021/12/10 04:07:18;;;;;;;2.25;1.50;;;21.60;44.00;;;;;;5071141;28;43942;-64
2021/12/10 04:09:48;;;;;;;2.35;1.70;;;21.60;43.90;;;;;;5034007;28;44064;-64
2021/12/10 04:12:17;;;;;;;1.42;1.33;;;21.60;43.90;;;;;;5050382;28;43398;-64
2021/12/10 04:14:47;;;;;;;2.17;1.48;;;21.50;43.90;;;;;;5070125;28;43557;-62
2021/12/10 04:17:17;;;;;;;2.03;1.70;;;21.50;43.90;;;;;;5040868;28;46197;-64
2021/12/10 04:19:45;;;;;;;2.40;1.90;;;21.50;43.90;;;;;;5062440;28;43542;-64
2021/12/10 04:22:14;;;;;;;1.75;1.63;;;21.50;43.90;;;;;;5069730;28;43440;-63
2021/12/10 04:24:42;;;;;;;2.20;1.38;;;21.50;43.90;;;;;;5068866;28;43478;-63
2021/12/10 04:27:17;;;;;;;1.70;1.60;;;21.50;44.00;;;;;;5060059;28;43800;-64
2021/12/10 04:29:46;;;;;;;2.13;1.63;;;21.50;43.90;;;;;;5069696;28;43511;-62
2021/12/10 04:32:14;;;;;;;2.05;1.63;;;21.50;43.90;;;;;;5076089;28;43411;-64
2021/12/10 04:34:43;;;;;;;1.67;1.55;;;21.50;44.00;;;;;;5066606;28;43634;-64
2021/12/10 04:37:11;;;;;;;2.40;1.73;;;21.50;43.90;;;;;;5053612;28;43782;-64
2021/12/10 04:39:45;;;;;;;2.15;1.75;;;21.50;44.00;;;;;;5070062;28;43692;-62
2021/12/10 04:42:21;;;;;;;1.98;1.50;;;21.40;43.90;;;;;;5070937;28;43451;-63
2021/12/10 04:44:52;;;;;;;3.22;1.60;;;21.40;44.00;;;;;;5061131;28;43396;-63
2021/12/10 04:47:20;;;;;;;1.90;1.70;;;21.40;44.00;;;;;;5067536;28;44625;-64
2021/12/10 04:49:47;;;;;;;2.13;1.60;;;21.40;44.00;;;;;;5074388;28;43351;-63
2021/12/10 04:52:15;;;;;;;1.73;1.60;;;21.30;44.00;;;;;;5067615;28;43355;-63
2021/12/10 04:54:43;;;;;;;1.65;1.55;;;21.30;44.00;;;;;;5061394;28;43581;-62
2021/12/10 04:57:12;;;;;;;2.88;1.80;;;21.30;44.10;;;;;;5046007;28;44948;-64
2021/12/10 04:59:40;;;;;;;2.15;1.70;;;21.30;44.00;;;;;;5073237;28;43477;-63
2021/12/10 05:02:11;;;;;;;1.77;1.50;;;21.30;44.10;;;;;;5071370;28;43480;-64
2021/12/10 05:04:43;;;;;;;1.80;1.60;;;21.30;44.00;;;;;;5032975;28;43543;-64
2021/12/10 05:07:13;;;;;;;3.60;1.70;;;21.30;44.10;;;;;;5070687;28;44958;-64
2021/12/10 05:09:41;;;;;;;2.15;1.67;;;21.30;44.10;;;;;;5072863;28;43899;-63
2021/12/10 05:12:09;;;;;;;2.92;1.73;;;21.30;44.10;;;;;;5041700;28;43530;-63
2021/12/10 05:14:37;;;;;;;2.20;1.70;;;21.20;44.00;;;;;;5062250;28;43507;-65
2021/12/10 05:17:07;;;;;;;1.50;1.40;;;21.20;44.00;;;;;;5070429;28;43753;-63
2021/12/10 05:19:38;;;;;;;1.92;1.60;;;21.20;44.00;;;;;;5069840;28;43534;-62
2021/12/10 05:22:08;;;;;;;1.75;1.60;;;21.20;44.10;;;;;;5051927;28;43931;-65
2021/12/10 05:24:35;;;;;;;1.70;1.60;;;21.20;44.00;;;;;;5028506;28;43494;-64
2021/12/10 05:27:04;;;;;;;1.98;1.80;;;21.20;44.10;;;;;;5069054;28;44971;-64
2021/12/10 05:29:32;;;;;;;2.30;1.60;;;21.10;44.10;;;;;;5051324;28;43568;-63
2021/12/10 05:32:00;;;;;;;1.92;1.60;;;21.10;44.10;;;;;;5063725;28;43477;-63
2021/12/10 05:34:27;;;;;;;2.00;1.60;;;21.10;44.10;;;;;;5043125;28;43530;-62
2021/12/10 05:36:56;;;;;;;2.33;1.63;;;21.10;44.10;;;;;;5072978;28;43995;-64
2021/12/10 05:39:24;;;;;;;2.15;1.60;;;21.10;44.10;;;;;;5069290;28;43484;-62
2021/12/10 05:41:52;;;;;;;1.70;1.60;;;21.10;44.10;;;;;;5038291;28;43488;-63
2021/12/10 05:44:20;;;;;;;1.95;1.67;;;21.10;44.10;;;;;;5043942;28;43994;-62
2021/12/10 05:46:47;;;;;;;2.30;2.00;;;21.10;44.70;;;;;;5075463;28;43887;-64
2021/12/10 05:49:15;;;;;;;2.15;1.77;;;21.10;44.10;;;;;;5064364;28;43467;-64
2021/12/10 05:51:43;;;;;;;1.98;1.77;;;21.10;44.10;;;;;;5040695;28;43446;-63
2021/12/10 05:54:11;;;;;;;2.35;2.00;;;21.10;44.10;;;;;;5041615;28;43526;-64
2021/12/10 05:56:38;;;;;;;2.00;1.77;;;21.10;44.10;;;;;;5068612;28;43956;-64
2021/12/10 05:59:06;;;;;;;2.03;1.80;;;21.00;44.00;;;;;;5062282;27;43733;-63
2021/12/10 06:01:34;;;;;;;2.58;1.60;;;21.00;44.00;;;;;;5061222;28;43461;-64
2021/12/10 06:04:03;;;;;;;2.15;1.90;;;21.10;44.00;;;;;;5075901;28;43564;-64
2021/12/10 06:06:32;;;;;;;3.08;1.70;;;21.10;43.80;;;;;;5046556;28;45835;-63
2021/12/10 06:09:03;;;;;;;1.88;1.70;;;21.10;43.70;;;;;;5061096;28;43452;-63
2021/12/10 06:11:31;;;;;;;2.75;2.20;;;21.20;43.70;;;;;;5060115;28;43439;-64
2021/12/10 06:13:58;;;;;;;1.80;1.70;;;21.20;43.60;;;;;;5074420;28;43431;-64
2021/12/10 06:16:26;;;;;;;2.22;1.92;;;21.20;43.60;;;;;;5065661;28;43626;-62
2021/12/10 06:18:54;;;;;;;2.03;1.80;;;21.20;43.50;;;;;;5061424;28;43804;-64
2021/12/10 06:21:22;;;;;;;2.33;1.90;;;21.20;43.60;;;;;;5070123;28;43426;-64
2021/12/10 06:23:49;;;;;;;2.42;1.90;;;21.20;43.50;;;;;;5050886;28;43632;-62
2021/12/10 06:26:17;;;;;;;2.45;2.10;;;21.20;43.60;;;;;;5062688;28;44986;-63
2021/12/10 06:28:46;;;;;;;2.00;1.80;;;21.10;43.50;;;;;;5033728;28;43464;-63
2021/12/10 06:31:19;;;;;;;2.00;1.80;;;21.10;43.60;;;;;;5075436;28;43392;-62
2021/12/10 06:33:48;;;;;;;1.98;1.80;;;21.10;43.60;;;;;;5065444;28;43451;-63
2021/12/10 06:36:17;;;;;;;3.65;1.88;;;21.10;43.60;;;;;;5060808;28;43832;-64
2021/12/10 06:38:45;;;;;;;2.20;1.83;;;21.10;43.50;;;;;;5054749;28;43513;-65
2021/12/10 06:41:14;;;;;;;2.15;1.80;;;21.10;43.50;;;;;;5055745;28;43458;-62
2021/12/10 06:43:42;;;;;;;2.65;2.10;;;21.10;43.60;;;;;;5061637;28;43545;-62
2021/12/10 06:46:12;;;;;;;2.08;1.80;;;21.00;43.60;;;;;;5031552;28;44174;-63
2021/12/10 06:48:40;;;;;;;2.58;2.05;;;21.00;43.60;;;;;;5046820;28;44426;-63
2021/12/10 06:51:21;;;;;;;2.42;1.90;;;21.00;43.60;;;;;;5056996;28;43505;-63
2021/12/10 06:53:49;;;;;;;2.33;2.10;;;21.00;43.60;;;;;;5064022;28;43448;-65
2021/12/10 06:56:18;;;;;;;4.57;2.30;;;21.00;43.60;;;;;;5060921;28;43968;-64
2021/12/10 06:58:46;;;;;;;2.65;2.15;;;21.00;43.60;;;;;;5076521;28;43444;-64
2021/12/10 07:01:24;;;;;;;2.42;1.90;;;20.90;43.50;;;;;;5071712;28;43426;-63
2021/12/10 07:03:53;;;;;;;2.20;2.00;;;20.90;43.50;;;;;;5056416;28;44068;-61
2021/12/10 07:06:22;;;;;;;2.22;2.03;;;20.90;43.50;;;;;;5057971;28;44793;-62
2021/12/10 07:08:50;;;;;;;1.92;1.83;;;20.90;43.50;;;;;;5060065;27;43497;-63
2021/12/10 07:11:19;;;;;;;2.17;1.98;;;21.00;43.60;;;;;;5067536;28;43418;-65
2021/12/10 07:13:51;;;;;;;2.97;2.20;;;20.90;43.50;;;;;;5073426;28;43541;-63
2021/12/10 07:16:21;;;;;;;2.40;2.08;;;20.90;43.50;;;;;;5070337;28;45005;-64
2021/12/10 07:18:51;;;;;;;2.38;2.10;;;20.90;43.50;;;;;;5080124;28;43384;-64
2021/12/10 07:21:19;;;;;;;2.70;2.00;;;20.90;43.50;;;;;;5048004;28;43439;-65
2021/12/10 07:23:47;;;;;;;3.13;2.00;;;20.90;43.50;;;;;;5060649;28;43458;-65
2021/12/10 07:26:16;;;;;;;2.50;2.30;;;20.90;43.60;;;;;;5063942;28;44971;-63
2021/12/10 07:28:43;;;;;;;2.33;2.13;;;20.90;43.60;;;;;;5035085;28;43794;-63
2021/12/10 07:31:13;;;;;;;2.47;2.13;;;20.90;43.60;;;;;;5064574;28;43488;-63
2021/12/10 07:33:41;;;;;;;2.72;2.10;;;20.90;43.60;;;;;;5035945;28;43515;-63
2021/12/10 07:36:09;;;;;;;2.92;2.00;;;20.90;43.50;;;;;;5063312;28;44357;-62
2021/12/10 07:38:37;;;;;;;2.33;2.08;;;20.90;43.60;;;;;;5066897;28;43568;-64
2021/12/10 07:41:06;;;;;;;1.80;1.70;;;20.90;43.60;;;;;;5062037;28;43423;-63
2021/12/10 07:43:36;;;;;;;2.08;1.88;;;20.90;43.60;;;;;;5057728;28;43498;-64
2021/12/10 07:46:04;;;;;;;2.10;1.88;;;20.90;43.70;;;;;;5081414;28;44648;-64
2021/12/10 07:48:35;;;;;;;2.42;1.80;;;20.90;44.40;;;;;;5064198;28;43543;-63
2021/12/10 07:51:06;;;;;;;2.08;1.92;;;20.90;43.70;;;;;;5056823;28;43547;-64
2021/12/10 07:53:34;;;;;;;2.45;1.75;;;20.90;43.80;;;;;;5055209;28;43448;-64
2021/12/10 07:56:05;;;;;;;2.33;1.80;;;20.90;43.80;;;;;;5080735;28;43579;-64
2021/12/10 07:58:33;;;;;;;2.63;1.90;;;20.90;43.80;;;;;;5063793;28;43611;-64
2021/12/10 08:01:06;;;;;;;2.05;1.70;;;20.90;43.70;;;;;;5061843;28;43470;-65
2021/12/10 08:03:34;;;;;;;1.83;1.73;;;20.90;43.70;;;;;;5078728;28;44026;-64
2021/12/10 08:06:01;;;;;;;1.80;1.70;;;20.90;43.70;;;;;;5048529;28;44028;-63
2021/12/10 08:08:29;;;;;;;1.92;1.60;;;20.90;43.70;;;;;;5038445;28;43519;-63
2021/12/10 08:10:57;;;;;;;1.70;1.60;;;20.90;43.70;;;;;;5054974;28;43439;-64
2021/12/10 08:13:25;;;;;;;1.73;1.63;;;20.90;43.70;;;;;;5054307;28;43579;-64
2021/12/10 08:15:53;;;;;;;1.80;1.70;;;20.90;43.70;;;;;;5028799;28;44651;-63
2021/12/10 08:18:20;;;;;;;1.90;1.70;;;20.90;43.60;;;;;;5048337;28;43964;-63
2021/12/10 08:20:51;;;;;;;;;;;20.90;43.70;;;;;;5048581;28;43584;-63
2021/12/10 08:23:19;;;;;;;1.65;1.48;;;21.00;43.70;;;;;;5042862;28;43601;-64
2021/12/10 08:25:48;;;;;;;2.45;1.70;;;20.90;43.70;;;;;;5044355;28;43585;-63
2021/12/10 08:28:18;;;;;;;1.50;1.40;;;20.90;43.70;;;;;;5034637;28;43595;-64
2021/12/10 08:30:46;;;;;;;1.92;1.55;;;20.90;43.70;;;;;;5048043;28;43595;-63
2021/12/10 08:33:15;;;;;;;1.40;1.30;;;20.90;44.10;;;;;;5032793;28;43838;-63
2021/12/10 08:35:45;;;;;;;1.80;1.65;;;21.00;44.00;;;;;;5032956;28;43945;-63
2021/12/10 08:38:13;;;;;;;2.55;1.60;;;21.00;43.80;;;;;;5052209;28;43542;-64
2021/12/10 08:40:54;;;;;;;1.50;1.40;;;21.00;43.70;;;;;;5049672;28;43562;-63
2021/12/10 08:43:23;;;;;;;1.40;1.30;;;21.00;43.70;;;;;;5055373;28;43553;-65
2021/12/10 08:45:52;;;;;;;2.05;1.40;;;21.10;43.70;;;;;;5057819;28;45081;-62
2021/12/10 08:48:23;;;;;;;1.15;1.08;;;21.10;43.70;;;;;;5051077;28;43580;-63
2021/12/10 08:50:52;;;;;;;1.73;1.40;;;21.10;43.60;;;;;;5055525;28;44174;-62
2021/12/10 08:53:19;;;;;;;2.47;1.50;;;21.20;43.70;;;;;;5058187;28;43604;-63
2021/12/10 08:55:54;;;;;;;1.50;1.40;;;21.20;43.60;;;;;;5038063;28;44961;-64
2021/12/10 08:58:22;;;;;;;1.80;1.48;;;21.20;43.60;;;;;;5057912;28;43537;-64
2021/12/10 09:00:57;;;;;;;1.23;1.23;;;21.20;43.50;;;;;;5040147;28;43631;-63
2021/12/10 09:03:43;;;;;;;1.50;1.40;;;21.20;43.50;;;;;;5055469;28;43563;-62
2021/12/10 09:06:12;;;;;;;1.60;1.50;;;21.30;43.60;;;;;;5055470;28;44229;-63
2021/12/10 09:08:40;;;;;;;1.60;1.50;;;21.30;43.50;;;;;;5051384;28;43536;-63
2021/12/10 09:11:11;;;;;;;1.40;1.30;;;21.30;43.40;;;;;;5051456;28;43655;-63
2021/12/10 09:13:39;;;;;;;1.40;1.30;;;21.40;43.50;;;;;;5054924;28;43525;-64
2021/12/10 09:16:20;;;;;;;1.40;1.30;;;21.40;43.50;;;;;;5056342;28;44086;-63
2021/12/10 09:18:49;;;;;;;;;;;21.40;43.40;;;;;;5056189;28;43565;-63
2021/12/10 09:21:17;;;;;;;1.20;1.10;;;21.40;43.50;;;;;;5058473;28;43603;-62
2021/12/10 09:23:46;;;;;;;1.40;1.30;;;21.40;43.60;;;;;;5052719;28;44709;-63
2021/12/10 09:26:18;;;;;;;1.20;1.10;;;21.40;43.50;;;;;;5051454;28;43771;-63
2021/12/10 09:28:47;;;;;;;1.65;1.52;;;21.40;43.50;;;;;;5051451;28;43981;-62
2021/12/10 09:31:15;;;;;;;1.33;1.23;;;21.50;43.60;;;;;;5056700;28;43639;-64
2021/12/10 09:33:44;;;;;;;1.15;1.15;;;21.50;43.60;;;;;;5052463;28;44826;-63
2021/12/10 09:36:13;;;;;;;1.33;1.23;;;21.50;43.70;;;;;;5048349;28;43876;-63
2021/12/10 09:38:40;;;;;;;1.25;1.15;;;21.50;43.70;;;;;;5048285;28;43974;-64
2021/12/10 09:41:09;;;;;;;1.23;1.17;;;21.50;43.70;;;;;;5048137;28;43596;-63
2021/12/10 09:43:44;;;;;;;1.38;1.27;;;21.50;43.70;;;;;;5054931;28;43650;-62
2021/12/10 09:46:12;;;;;;;1.38;1.20;;;21.50;43.70;;;;;;5057591;28;44061;-63
2021/12/10 09:48:42;;;;;;;1.35;1.25;;;21.50;43.70;;;;;;5055700;28;44818;-62
2021/12/10 09:51:21;;;;;;;1.25;1.20;;;21.50;43.70;;;;;;5042287;28;43583;-63
2021/12/10 09:53:53;;;;;;;1.15;1.05;;;21.50;43.70;;;;;;5033645;28;43634;-63
2021/12/10 09:56:22;;;;;;;1.15;1.13;;;21.50;43.60;;;;;;5041028;28;43815;-62
2021/12/10 09:58:53;;;;;;;1.33;1.10;;;21.50;43.70;;;;;;5056726;28;44805;-63
2021/12/10 10:01:25;;;;;;;2.17;1.00;;;21.50;43.70;;;;;;5056212;28;43551;-63
2021/12/10 10:04:01;;;;;;;1.50;1.27;;;21.60;43.60;;;;;;5054358;28;43593;-60
2021/12/10 10:06:39;;;;;;;1.40;1.30;;;21.60;43.60;;;;;;5054077;28;43783;-63
2021/12/10 10:09:11;;;;;;;3.00;1.20;;;21.60;43.60;;;;;;5038747;28;43582;-63
2021/12/10 10:11:46;;;;;;;1.75;1.35;;;21.60;43.80;;;;;;5057846;28;43579;-62
2021/12/10 10:14:13;;;;;;;1.40;1.30;;;21.70;43.90;;;;;;5051640;28;44268;-63
2021/12/10 10:16:44;;;;;;;1.98;1.13;;;21.70;43.70;;;;;;5042982;28;44890;-62
2021/12/10 10:19:16;;;;;;;1.30;1.20;;;21.80;43.70;;;;;;5054066;28;43874;-64
2021/12/10 10:21:49;;;;;;;2.05;1.58;;;21.80;43.60;;;;;;5054771;28;43533;-64
2021/12/10 10:24:18;;;;;;;3.05;1.17;;;21.80;43.60;;;;;;5049775;28;43595;-61
2021/12/10 10:26:53;;;;;;;2.35;1.20;;;21.80;43.40;;;;;;5039017;28;45025;-64
2021/12/10 10:29:24;;;;;;;1.48;1.38;;;21.90;43.40;;;;;;5056414;28;43533;-62
2021/12/10 10:31:53;;;;;;;;;;;21.80;43.50;;;;;;5004280;28;43638;-64
2021/12/10 10:34:22;;;;;;;1.15;0.98;;;21.80;43.40;;;;;;5051818;28;44190;-64
2021/12/10 10:36:50;;;;;;;1.30;1.20;;;21.90;43.50;;;;;;5043502;28;45450;-64
2021/12/10 10:39:30;;;;;;;1.30;1.20;;;21.90;43.50;;;;;;5046965;28;43711;-64
2021/12/10 10:41:58;;;;;;;1.33;1.20;;;21.90;44.10;;;;;;5040476;28;44001;-64
2021/12/10 10:44:45;;;;;;;1.33;1.23;;;21.90;43.40;;;;;;5037698;28;43688;-64
2021/12/10 10:47:13;;;;;;;2.30;1.20;;;21.90;43.40;;;;;;5038692;28;44191;-65
2021/12/10 10:49:47;;;;;;;2.40;1.13;;;21.90;43.40;;;;;;5052362;28;43906;-64
2021/12/10 10:52:36;;;;;;;1.77;1.17;;;21.90;43.30;;;;;;5045903;28;43625;-63
2021/12/10 10:55:15;;;;;;;5.45;1.33;;;21.90;43.30;;;;;;5049877;28;43534;-64
2021/12/10 10:57:51;;;;;;;1.83;1.30;;;21.90;43.50;;;;;;5035053;28;44392;-63
2021/12/10 11:00:43;;;;;;;1.65;1.10;;;22.00;44.10;;;;;;5029770;28;43567;-65
2021/12/10 11:03:38;;;;;;;1.17;1.08;;;22.00;43.40;;;;;;5024845;28;43617;-64
2021/12/10 11:06:13;;;;;;;3.63;1.50;;;22.00;43.50;;;;;;5046918;28;43636;-64
2021/12/10 11:08:50;;;;;;;1.30;1.20;;;22.00;43.40;;;;;;5047185;28;44077;-64
2021/12/10 11:11:25;;;;;;;1.08;1.00;;;22.00;43.40;;;;;;5031134;28;43641;-64
2021/12/10 11:14:08;;;;;;;1.17;1.10;;;22.10;43.40;;;;;;5031497;28;43569;-64
2021/12/10 11:16:39;;;;;;;2.55;1.10;;;22.10;43.40;;;;;;5049735;28;43658;-66
2021/12/10 11:19:33;;;;;;;1.20;1.10;;;22.10;43.40;;;;;;5051955;28;44946;-65
2021/12/10 11:22:13;;;;;;;1.33;1.20;;;22.10;43.30;;;;;;5030168;28;43562;-65
2021/12/10 11:24:47;;;;;;;0.90;0.90;;;22.10;43.40;;;;;;5048575;28;43626;-63
2021/12/10 11:27:19;;;;;;;1.33;1.23;;;22.10;43.50;;;;;;5038376;28;44573;-64
2021/12/10 11:30:04;;;;;;;1.00;1.00;;;22.10;43.50;;;;;;5031555;28;43802;-64
2021/12/10 11:32:37;;;;;;;1.08;0.98;;;22.10;43.50;;;;;;5049675;28;44255;-64
2021/12/10 11:35:24;;;;;;;1.38;1.27;;;22.10;43.60;;;;;;5010344;28;43662;-64
2021/12/10 11:37:58;;;;;;;1.40;1.17;;;22.10;43.70;;;;;;5031096;28;43674;-65
2021/12/10 11:40:42;;;;;;;1.17;1.00;;;22.00;43.80;;;;;;5028247;28;43757;-64
2021/12/10 11:46:26;;;;;;;1.10;1.00;;;22.00;43.80;;;;;;5038131;28;43645;-63
2021/12/10 11:49:05;;;;;;;1.83;1.23;;;22.00;43.90;;;;;;5036589;28;43794;-62
2021/12/10 11:51:47;;;;;;;1.23;1.10;;;22.00;43.90;;;;;;5051496;28;44927;-64
2021/12/10 11:54:20;;;;;;;1.10;0.82;;;22.10;43.80;;;;;;5053095;28;43726;-64
2021/12/10 11:56:54;;;;;;;1.85;1.10;;;22.10;43.90;;;;;;5031877;28;43544;-65
2021/12/10 11:59:32;;;;;;;1.27;1.17;;;22.10;43.80;;;;;;5056647;28;43716;-65
2021/12/10 12:02:11;;;;;;;1.10;0.82;;;22.10;43.80;;;;;;5052816;28;43886;-64
2021/12/10 12:04:49;;;;;;;0.75;0.75;;;22.20;43.80;;;;;;5016703;28;43662;-65
2021/12/10 12:07:39;;;;;;;1.77;1.20;;;22.20;43.70;;;;;;5014545;28;43633;-65
2021/12/10 12:10:22;;;;;;;1.38;1.00;;;22.20;43.80;;;;;;5009570;28;43602;-64
2021/12/10 12:13:08;;;;;;;1.30;1.15;;;22.20;43.80;;;;;;5017911;28;43696;-63
2021/12/10 12:15:47;;;;;;;1.33;1.23;;;22.20;43.80;;;;;;5014669;28;43732;-65
2021/12/10 12:18:26;;;;;;;1.15;1.08;;;22.20;43.80;;;;;;5016693;28;43659;-66
2021/12/10 12:27:12;;;;;;;1.10;1.00;;;22.30;43.70;;;;;;5008474;28;43814;-64
2021/12/10 12:30:06;;;;;;;1.15;1.05;;;22.30;43.80;;;;;;5014629;28;43959;-64
2021/12/10 12:32:54;;;;;;;1.25;1.17;;;22.30;43.80;;;;;;5007021;28;44590;-66
2021/12/10 12:35:30;;;;;;;0.95;0.95;;;22.30;43.80;;;;;;5005491;28;44744;-65
2021/12/10 12:38:14;;;;;;;0.98;0.90;;;22.30;43.70;;;;;;5010642;28;43566;-65
2021/12/10 12:41:23;;;;;;;0.90;0.90;;;22.30;43.80;;;;;;5013040;28;43620;-64
2021/12/10 12:44:12;;;;;;;0.90;0.90;;;22.40;43.70;;;;;;5005489;28;43610;-64
2021/12/10 12:47:12;;;;;;;1.33;0.90;;;22.40;43.70;;;;;;5016022;28;44873;-63
2021/12/10 12:49:49;;;;;;;1.30;1.20;;;22.40;43.70;;;;;;5013963;28;43601;-64
2021/12/10 12:52:30;;;;;;;1.15;1.05;;;22.40;43.70;;;;;;5012186;28;43950;-65
2021/12/10 12:55:22;;;;;;;1.40;1.17;;;22.30;43.70;;;;;;5027158;28;43751;-63
2021/12/10 12:58:18;;;;;;;1.45;1.02;;;22.40;43.60;;;;;;5014895;28;43858;-65
2021/12/10 13:01:14;;;;;;;1.30;1.20;;;22.40;43.70;;;;;;5016698;28;43650;-65
2021/12/10 13:03:57;;;;;;;0.95;0.95;;;22.40;43.70;;;;;;5024673;28;44875;-63
2021/12/10 13:06:49;;;;;;;1.20;1.10;;;22.50;43.50;;;;;;5048954;28;43585;-63
2021/12/10 13:09:40;;;;;;;1.02;1.00;;;22.50;43.50;;;;;;5046570;28;45077;-65
2021/12/10 13:12:24;;;;;;;1.05;1.00;;;22.50;43.10;;;;;;5052370;28;43923;-63
2021/12/10 13:14:58;;;;;;;1.17;1.10;;;22.50;43.10;;;;;;5052941;28;43557;-64
2021/12/10 13:17:33;;;;;;;1.20;1.10;;;22.50;43.10;;;;;;5050167;28;43668;-63
2021/12/10 13:20:09;;;;;;;1.15;1.08;;;22.60;43.20;;;;;;5050294;28;44898;-63
2021/12/10 13:22:37;;;;;;;1.00;1.00;;;22.60;43.10;;;;;;5054125;28;43503;-62
2021/12/10 13:25:10;;;;;;;1.13;1.00;;;22.60;43.10;;;;;;5054425;28;43606;-64
2021/12/10 13:27:40;;;;;;;0.95;0.95;;;22.60;43.10;;;;;;5052341;28;43577;-64
2021/12/10 13:30:42;;;;;;;1.25;1.15;;;22.60;43.00;;;;;;5051609;28;44881;-63
2021/12/10 13:33:21;;;;;;;1.92;1.17;;;22.60;43.00;;;;;;5042571;28;43565;-62